sensor_id;sensor_type;location;lat;lon;timestamp;P1;durP1;ratioP1;P2;durP2;ratioP2
73697;SDS011;62004;42.566;23.164;2023-02-15T00:01:32;565.72;;;533.08;;
73697;SDS011;62004;42.566;23.164;2023-02-15T00:03:57;591.75;;;556.92;;
73697;SDS011;62004;42.566;23.164;2023-02-15T00:06:22;583.83;;;549.10;;
73697;SDS011;62004;42.566;23.164;2023-02-15T00:08:48;584.80;;;550.33;;
73697;SDS011;62004;42.566;23.164;2023-02-15T00:11:14;588.90;;;553.67;;
73697;SDS011;62004;42.566;23.164;2023-02-15T00:13:39;578.58;;;544.15;;
73697;SDS011;62004;42.566;23.164;2023-02-15T00:16:11;581.75;;;546.13;;
73697;SDS011;62004;42.566;23.164;2023-02-15T00:18:37;578.08;;;544.33;;
73697;SDS011;62004;42.566;23.164;2023-02-15T00:21:03;593.20;;;558.53;;
73697;SDS011;62004;42.566;23.164;2023-02-15T00:23:29;600.38;;;564.63;;
73697;SDS011;62004;42.566;23.164;2023-02-15T00:26:07;583.63;;;548.30;;
73697;SDS011;62004;42.566;23.164;2023-02-15T00:28:33;569.65;;;535.55;;
73697;SDS011;62004;42.566;23.164;2023-02-15T00:31:09;591.83;;;555.40;;
73697;SDS011;62004;42.566;23.164;2023-02-15T00:33:34;581.58;;;546.30;;
73697;SDS011;62004;42.566;23.164;2023-02-15T00:36:00;597.65;;;561.85;;
73697;SDS011;62004;42.566;23.164;2023-02-15T00:38:26;586.10;;;549.80;;
73697;SDS011;62004;42.566;23.164;2023-02-15T00:40:54;596.30;;;560.35;;
73697;SDS011;62004;42.566;23.164;2023-02-15T00:43:20;586.20;;;551.05;;
73697;SDS011;62004;42.566;23.164;2023-02-15T00:45:46;586.78;;;551.85;;
73697;SDS011;62004;42.566;23.164;2023-02-15T00:48:11;587.13;;;551.65;;
73697;SDS011;62004;42.566;23.164;2023-02-15T00:50:36;599.77;;;563.20;;
73697;SDS011;62004;42.566;23.164;2023-02-15T00:53:02;580.73;;;546.43;;
73697;SDS011;62004;42.566;23.164;2023-02-15T00:55:27;599.60;;;564.10;;
73697;SDS011;62004;42.566;23.164;2023-02-15T00:57:52;592.17;;;557.70;;
73697;SDS011;62004;42.566;23.164;2023-02-15T01:00:17;567.77;;;534.67;;
73697;SDS011;62004;42.566;23.164;2023-02-15T01:02:43;580.50;;;545.53;;
73697;SDS011;62004;42.566;23.164;2023-02-15T01:05:08;595.03;;;559.30;;
73697;SDS011;62004;42.566;23.164;2023-02-15T01:07:33;593.43;;;557.70;;
73697;SDS011;62004;42.566;23.164;2023-02-15T01:09:58;604.23;;;567.67;;
73697;SDS011;62004;42.566;23.164;2023-02-15T01:12:23;579.93;;;545.67;;
73697;SDS011;62004;42.566;23.164;2023-02-15T01:14:49;571.27;;;537.50;;
73697;SDS011;62004;42.566;23.164;2023-02-15T01:17:14;594.73;;;559.13;;
73697;SDS011;62004;42.566;23.164;2023-02-15T01:19:39;569.73;;;536.83;;
73697;SDS011;62004;42.566;23.164;2023-02-15T01:22:04;583.57;;;548.47;;
73697;SDS011;62004;42.566;23.164;2023-02-15T01:24:30;597.97;;;563.28;;
73697;SDS011;62004;42.566;23.164;2023-02-15T01:26:55;586.87;;;552.73;;
73697;SDS011;62004;42.566;23.164;2023-02-15T01:29:21;591.67;;;556.43;;
73697;SDS011;62004;42.566;23.164;2023-02-15T01:31:46;581.33;;;546.60;;
73697;SDS011;62004;42.566;23.164;2023-02-15T01:34:11;597.07;;;561.73;;
73697;SDS011;62004;42.566;23.164;2023-02-15T01:46:51;587.85;;;552.28;;
73697;SDS011;62004;42.566;23.164;2023-02-15T01:49:18;583.85;;;549.05;;
73697;SDS011;62004;42.566;23.164;2023-02-15T01:51:45;602.53;;;565.97;;
73697;SDS011;62004;42.566;23.164;2023-02-15T01:54:30;582.17;;;548.45;;
73697;SDS011;62004;42.566;23.164;2023-02-15T01:56:57;580.15;;;545.97;;
73697;SDS011;62004;42.566;23.164;2023-02-15T01:59:23;578.75;;;544.60;;
73697;SDS011;62004;42.566;23.164;2023-02-15T02:01:49;593.28;;;558.20;;
73697;SDS011;62004;42.566;23.164;2023-02-15T02:06:42;577.73;;;543.97;;
73697;SDS011;62004;42.566;23.164;2023-02-15T02:09:09;592.70;;;557.60;;
73697;SDS011;62004;42.566;23.164;2023-02-15T02:11:35;597.25;;;562.15;;
73697;SDS011;62004;42.566;23.164;2023-02-15T02:14:00;602.57;;;566.37;;
73697;SDS011;62004;42.566;23.164;2023-02-15T02:37:37;578.13;;;544.03;;
73697;SDS011;62004;42.566;23.164;2023-02-15T02:40:14;596.50;;;561.38;;
73697;SDS011;62004;42.566;23.164;2023-02-15T02:42:43;587.60;;;552.78;;
73697;SDS011;62004;42.566;23.164;2023-02-15T02:45:11;586.03;;;551.60;;
73697;SDS011;62004;42.566;23.164;2023-02-15T02:50:05;587.47;;;553.03;;
73697;SDS011;62004;42.566;23.164;2023-02-15T02:52:35;579.60;;;545.05;;
73697;SDS011;62004;42.566;23.164;2023-02-15T02:55:02;575.25;;;541.85;;
73697;SDS011;62004;42.566;23.164;2023-02-15T02:57:28;588.05;;;553.72;;
73697;SDS011;62004;42.566;23.164;2023-02-15T02:59:54;593.50;;;557.83;;
73697;SDS011;62004;42.566;23.164;2023-02-15T03:02:21;596.00;;;559.83;;
73697;SDS011;62004;42.566;23.164;2023-02-15T03:04:49;581.13;;;547.67;;
73697;SDS011;62004;42.566;23.164;2023-02-15T03:07:23;589.03;;;553.83;;
73697;SDS011;62004;42.566;23.164;2023-02-15T03:09:54;586.10;;;551.60;;
73697;SDS011;62004;42.566;23.164;2023-02-15T03:12:26;586.17;;;552.03;;
73697;SDS011;62004;42.566;23.164;2023-02-15T03:14:54;578.53;;;544.95;;
73697;SDS011;62004;42.566;23.164;2023-02-15T03:17:21;594.33;;;559.22;;
73697;SDS011;62004;42.566;23.164;2023-02-15T03:19:47;590.20;;;556.05;;
73697;SDS011;62004;42.566;23.164;2023-02-15T03:24:44;602.10;;;566.20;;
73697;SDS011;62004;42.566;23.164;2023-02-15T03:27:14;589.70;;;555.00;;
73697;SDS011;62004;42.566;23.164;2023-02-15T03:29:42;607.88;;;572.78;;
73697;SDS011;62004;42.566;23.164;2023-02-15T03:32:08;578.38;;;543.83;;
73697;SDS011;62004;42.566;23.164;2023-02-15T03:34:35;600.75;;;564.83;;
73697;SDS011;62004;42.566;23.164;2023-02-15T03:37:04;597.17;;;562.30;;
73697;SDS011;62004;42.566;23.164;2023-02-15T03:39:35;594.65;;;559.47;;
73697;SDS011;62004;42.566;23.164;2023-02-15T03:42:04;598.20;;;563.28;;
73697;SDS011;62004;42.566;23.164;2023-02-15T03:44:35;596.50;;;561.78;;
73697;SDS011;62004;42.566;23.164;2023-02-15T03:51:55;598.17;;;563.58;;
73697;SDS011;62004;42.566;23.164;2023-02-15T03:54:25;593.88;;;559.75;;
73697;SDS011;62004;42.566;23.164;2023-02-15T03:57:09;595.13;;;560.13;;
73697;SDS011;62004;42.566;23.164;2023-02-15T04:00:15;586.13;;;552.22;;
73697;SDS011;62004;42.566;23.164;2023-02-15T04:03:07;598.63;;;563.95;;
73697;SDS011;62004;42.566;23.164;2023-02-15T04:05:33;597.65;;;562.70;;
73697;SDS011;62004;42.566;23.164;2023-02-15T04:07:59;588.77;;;554.83;;
73697;SDS011;62004;42.566;23.164;2023-02-15T04:10:24;590.10;;;556.40;;
73697;SDS011;62004;42.566;23.164;2023-02-15T04:13:08;576.88;;;543.88;;
73697;SDS011;62004;42.566;23.164;2023-02-15T04:15:33;575.20;;;542.77;;
73697;SDS011;62004;42.566;23.164;2023-02-15T04:18:17;592.05;;;557.58;;
73697;SDS011;62004;42.566;23.164;2023-02-15T04:20:45;598.70;;;563.90;;
73697;SDS011;62004;42.566;23.164;2023-02-15T04:23:29;589.33;;;554.55;;
73697;SDS011;62004;42.566;23.164;2023-02-15T04:26:13;591.17;;;557.00;;
73697;SDS011;62004;42.566;23.164;2023-02-15T04:28:38;588.17;;;553.70;;
73697;SDS011;62004;42.566;23.164;2023-02-15T04:31:04;595.13;;;560.83;;
73697;SDS011;62004;42.566;23.164;2023-02-15T04:33:29;576.60;;;542.73;;
73697;SDS011;62004;42.566;23.164;2023-02-15T04:35:54;592.35;;;557.38;;
73697;SDS011;62004;42.566;23.164;2023-02-15T04:38:20;598.63;;;564.05;;
73697;SDS011;62004;42.566;23.164;2023-02-15T04:40:50;588.40;;;553.83;;
73697;SDS011;62004;42.566;23.164;2023-02-15T04:43:16;578.97;;;544.72;;
73697;SDS011;62004;42.566;23.164;2023-02-15T04:45:46;585.38;;;550.88;;
73697;SDS011;62004;42.566;23.164;2023-02-15T04:48:12;587.65;;;553.65;;
73697;SDS011;62004;42.566;23.164;2023-02-15T04:50:37;590.00;;;555.08;;
73697;SDS011;62004;42.566;23.164;2023-02-15T04:53:02;598.13;;;564.10;;
73697;SDS011;62004;42.566;23.164;2023-02-15T04:55:27;601.53;;;566.43;;
73697;SDS011;62004;42.566;23.164;2023-02-15T04:57:53;586.80;;;552.60;;
73697;SDS011;62004;42.566;23.164;2023-02-15T05:00:18;597.87;;;563.27;;
73697;SDS011;62004;42.566;23.164;2023-02-15T05:02:43;593.55;;;558.38;;
73697;SDS011;62004;42.566;23.164;2023-02-15T05:05:08;581.37;;;547.37;;
73697;SDS011;62004;42.566;23.164;2023-02-15T05:07:37;603.63;;;568.50;;
73697;SDS011;62004;42.566;23.164;2023-02-15T05:10:03;591.03;;;555.97;;
73697;SDS011;62004;42.566;23.164;2023-02-15T05:12:28;605.33;;;569.45;;
73697;SDS011;62004;42.566;23.164;2023-02-15T05:14:53;588.57;;;554.20;;
73697;SDS011;62004;42.566;23.164;2023-02-15T05:17:18;579.33;;;545.17;;
73697;SDS011;62004;42.566;23.164;2023-02-15T05:19:44;590.27;;;555.77;;
73697;SDS011;62004;42.566;23.164;2023-02-15T05:22:09;600.00;;;564.70;;
73697;SDS011;62004;42.566;23.164;2023-02-15T05:24:34;599.93;;;564.73;;
73697;SDS011;62004;42.566;23.164;2023-02-15T05:27:18;590.60;;;555.90;;
73697;SDS011;62004;42.566;23.164;2023-02-15T05:30:02;586.13;;;551.10;;
73697;SDS011;62004;42.566;23.164;2023-02-15T05:32:27;601.22;;;565.03;;
73697;SDS011;62004;42.566;23.164;2023-02-15T05:34:52;598.30;;;564.27;;
73697;SDS011;62004;42.566;23.164;2023-02-15T05:37:17;582.77;;;548.90;;
73697;SDS011;62004;42.566;23.164;2023-02-15T05:39:43;584.40;;;550.07;;
73697;SDS011;62004;42.566;23.164;2023-02-15T05:42:08;607.50;;;572.13;;
73697;SDS011;62004;42.566;23.164;2023-02-15T05:44:33;594.17;;;558.73;;
73697;SDS011;62004;42.566;23.164;2023-02-15T05:46:58;608.67;;;572.50;;
73697;SDS011;62004;42.566;23.164;2023-02-15T05:49:24;588.77;;;554.13;;
73697;SDS011;62004;42.566;23.164;2023-02-15T05:51:49;598.73;;;563.43;;
73697;SDS011;62004;42.566;23.164;2023-02-15T05:54:14;600.03;;;564.97;;
73697;SDS011;62004;42.566;23.164;2023-02-15T05:56:40;587.73;;;553.40;;
73697;SDS011;62004;42.566;23.164;2023-02-15T05:59:05;593.30;;;558.17;;
73697;SDS011;62004;42.566;23.164;2023-02-15T06:01:30;588.77;;;554.93;;
73697;SDS011;62004;42.566;23.164;2023-02-15T06:03:55;596.97;;;561.70;;
73697;SDS011;62004;42.566;23.164;2023-02-15T06:06:21;578.38;;;544.60;;
73697;SDS011;62004;42.566;23.164;2023-02-15T06:08:46;601.38;;;565.63;;
73697;SDS011;62004;42.566;23.164;2023-02-15T06:11:11;599.63;;;564.23;;
73697;SDS011;62004;42.566;23.164;2023-02-15T06:13:38;594.63;;;559.63;;
73697;SDS011;62004;42.566;23.164;2023-02-15T06:16:03;607.83;;;571.47;;
73697;SDS011;62004;42.566;23.164;2023-02-15T06:18:28;601.47;;;566.37;;
73697;SDS011;62004;42.566;23.164;2023-02-15T06:20:53;587.53;;;552.40;;
73697;SDS011;62004;42.566;23.164;2023-02-15T06:23:19;607.70;;;572.40;;
73697;SDS011;62004;42.566;23.164;2023-02-15T06:25:44;589.77;;;556.07;;
73697;SDS011;62004;42.566;23.164;2023-02-15T06:28:10;597.42;;;561.65;;
73697;SDS011;62004;42.566;23.164;2023-02-15T06:30:35;599.10;;;563.33;;
73697;SDS011;62004;42.566;23.164;2023-02-15T06:33:00;600.27;;;563.80;;
73697;SDS011;62004;42.566;23.164;2023-02-15T06:35:26;612.13;;;575.67;;
73697;SDS011;62004;42.566;23.164;2023-02-15T06:37:51;607.77;;;571.50;;
73697;SDS011;62004;42.566;23.164;2023-02-15T06:40:16;591.80;;;557.17;;
73697;SDS011;62004;42.566;23.164;2023-02-15T06:42:42;599.90;;;564.10;;
73697;SDS011;62004;42.566;23.164;2023-02-15T06:45:07;602.10;;;566.70;;
73697;SDS011;62004;42.566;23.164;2023-02-15T06:47:33;602.03;;;566.25;;
73697;SDS011;62004;42.566;23.164;2023-02-15T06:49:58;601.33;;;565.10;;
73697;SDS011;62004;42.566;23.164;2023-02-15T06:52:23;603.07;;;566.87;;
73697;SDS011;62004;42.566;23.164;2023-02-15T06:54:48;582.93;;;548.50;;
73697;SDS011;62004;42.566;23.164;2023-02-15T06:57:14;587.33;;;552.83;;
73697;SDS011;62004;42.566;23.164;2023-02-15T06:59:39;596.57;;;561.07;;
73697;SDS011;62004;42.566;23.164;2023-02-15T07:02:04;587.50;;;552.97;;
73697;SDS011;62004;42.566;23.164;2023-02-15T07:04:29;591.10;;;556.37;;
73697;SDS011;62004;42.566;23.164;2023-02-15T07:06:55;600.77;;;565.27;;
73697;SDS011;62004;42.566;23.164;2023-02-15T07:09:21;612.60;;;575.67;;
73697;SDS011;62004;42.566;23.164;2023-02-15T07:11:46;612.58;;;575.20;;
73697;SDS011;62004;42.566;23.164;2023-02-15T07:14:30;599.58;;;563.45;;
73697;SDS011;62004;42.566;23.164;2023-02-15T07:16:55;591.70;;;555.85;;
73697;SDS011;62004;42.566;23.164;2023-02-15T07:19:21;587.13;;;551.33;;
73697;SDS011;62004;42.566;23.164;2023-02-15T07:21:46;601.33;;;564.40;;
73697;SDS011;62004;42.566;23.164;2023-02-15T07:24:11;598.25;;;561.90;;
73697;SDS011;62004;42.566;23.164;2023-02-15T07:26:37;586.10;;;550.97;;
73697;SDS011;62004;42.566;23.164;2023-02-15T07:29:02;611.13;;;573.50;;
73697;SDS011;62004;42.566;23.164;2023-02-15T07:31:27;587.30;;;551.60;;
73697;SDS011;62004;42.566;23.164;2023-02-15T07:33:53;597.80;;;561.20;;
73697;SDS011;62004;42.566;23.164;2023-02-15T07:36:18;585.03;;;549.15;;
73697;SDS011;62004;42.566;23.164;2023-02-15T07:38:43;609.33;;;571.47;;
73697;SDS011;62004;42.566;23.164;2023-02-15T07:41:10;604.38;;;567.00;;
73697;SDS011;62004;42.566;23.164;2023-02-15T07:43:36;616.40;;;578.55;;
73697;SDS011;62004;42.566;23.164;2023-02-15T07:46:03;608.28;;;570.35;;
73697;SDS011;62004;42.566;23.164;2023-02-15T07:48:29;603.92;;;565.00;;
73697;SDS011;62004;42.566;23.164;2023-02-15T07:50:54;599.00;;;562.40;;
73697;SDS011;62004;42.566;23.164;2023-02-15T07:53:23;605.05;;;567.78;;
73697;SDS011;62004;42.566;23.164;2023-02-15T07:55:48;597.97;;;561.07;;
73697;SDS011;62004;42.566;23.164;2023-02-15T07:58:13;584.23;;;547.63;;
73697;SDS011;62004;42.566;23.164;2023-02-15T08:00:39;597.97;;;560.33;;
73697;SDS011;62004;42.566;23.164;2023-02-15T08:03:25;606.67;;;568.33;;
73697;SDS011;62004;42.566;23.164;2023-02-15T08:05:57;597.85;;;560.42;;
73697;SDS011;62004;42.566;23.164;2023-02-15T08:08:23;607.08;;;568.05;;
73697;SDS011;62004;42.566;23.164;2023-02-15T08:11:04;600.88;;;561.55;;
73697;SDS011;62004;42.566;23.164;2023-02-15T08:13:49;596.47;;;558.30;;
73697;SDS011;62004;42.566;23.164;2023-02-15T08:16:28;612.28;;;572.15;;
73697;SDS011;62004;42.566;23.164;2023-02-15T08:18:53;597.25;;;558.47;;
73697;SDS011;62004;42.566;23.164;2023-02-15T08:21:19;607.05;;;566.97;;
73697;SDS011;62004;42.566;23.164;2023-02-15T08:23:44;616.78;;;576.60;;
73697;SDS011;62004;42.566;23.164;2023-02-15T08:26:10;591.90;;;553.85;;
73697;SDS011;62004;42.566;23.164;2023-02-15T08:28:35;589.10;;;550.72;;
73697;SDS011;62004;42.566;23.164;2023-02-15T08:31:07;590.23;;;552.00;;
73697;SDS011;62004;42.566;23.164;2023-02-15T08:33:33;601.45;;;562.30;;
73697;SDS011;62004;42.566;23.164;2023-02-15T08:36:02;616.60;;;575.53;;
73697;SDS011;62004;42.566;23.164;2023-02-15T08:38:27;601.72;;;561.92;;
73697;SDS011;62004;42.566;23.164;2023-02-15T08:40:52;609.40;;;569.03;;
73697;SDS011;62004;42.566;23.164;2023-02-15T08:43:18;608.07;;;568.00;;
73697;SDS011;62004;42.566;23.164;2023-02-15T08:45:43;594.60;;;555.60;;
73697;SDS011;62004;42.566;23.164;2023-02-15T08:48:08;606.00;;;565.77;;
73697;SDS011;62004;42.566;23.164;2023-02-15T08:50:33;615.33;;;574.57;;
73697;SDS011;62004;42.566;23.164;2023-02-15T08:52:59;623.90;;;581.10;;
73697;SDS011;62004;42.566;23.164;2023-02-15T08:55:24;602.37;;;562.23;;
73697;SDS011;62004;42.566;23.164;2023-02-15T08:57:49;593.50;;;553.97;;
73697;SDS011;62004;42.566;23.164;2023-02-15T09:00:15;597.33;;;556.92;;
73697;SDS011;62004;42.566;23.164;2023-02-15T09:02:40;594.17;;;554.08;;
73697;SDS011;62004;42.566;23.164;2023-02-15T09:05:05;596.47;;;555.77;;
73697;SDS011;62004;42.566;23.164;2023-02-15T09:07:31;590.70;;;548.97;;
73697;SDS011;62004;42.566;23.164;2023-02-15T09:09:56;597.40;;;553.83;;
73697;SDS011;62004;42.566;23.164;2023-02-15T09:12:21;598.10;;;554.70;;
73697;SDS011;62004;42.566;23.164;2023-02-15T09:14:46;583.27;;;540.90;;
73697;SDS011;62004;42.566;23.164;2023-02-15T09:17:12;584.37;;;541.03;;
73697;SDS011;62004;42.566;23.164;2023-02-15T09:19:37;572.60;;;529.67;;
73697;SDS011;62004;42.566;23.164;2023-02-15T09:22:02;570.23;;;526.77;;
73697;SDS011;62004;42.566;23.164;2023-02-15T09:24:27;561.27;;;518.23;;
73697;SDS011;62004;42.566;23.164;2023-02-15T09:26:56;572.45;;;527.65;;
73697;SDS011;62004;42.566;23.164;2023-02-15T09:29:21;567.30;;;522.15;;
73697;SDS011;62004;42.566;23.164;2023-02-15T09:31:48;568.28;;;522.42;;
73697;SDS011;62004;42.566;23.164;2023-02-15T09:34:15;573.67;;;528.33;;
73697;SDS011;62004;42.566;23.164;2023-02-15T09:36:43;572.13;;;526.95;;
73697;SDS011;62004;42.566;23.164;2023-02-15T09:57:49;595.85;;;549.97;;
73697;SDS011;62004;42.566;23.164;2023-02-15T10:25:19;601.50;;;556.88;;
73697;SDS011;62004;42.566;23.164;2023-02-15T10:27:49;606.42;;;560.88;;
73697;SDS011;62004;42.566;23.164;2023-02-15T10:30:15;605.65;;;560.65;;
73697;SDS011;62004;42.566;23.164;2023-02-15T10:32:50;607.33;;;561.40;;
73697;SDS011;62004;42.566;23.164;2023-02-15T10:35:27;601.78;;;556.20;;
73697;SDS011;62004;42.566;23.164;2023-02-15T10:40:34;596.10;;;551.35;;
73697;SDS011;62004;42.566;23.164;2023-02-15T10:45:42;606.75;;;560.65;;
73697;SDS011;62004;42.566;23.164;2023-02-15T10:50:50;603.35;;;558.42;;
73697;SDS011;62004;42.566;23.164;2023-02-15T10:53:24;605.67;;;560.50;;
73697;SDS011;62004;42.566;23.164;2023-02-15T10:56:12;603.35;;;558.72;;
73697;SDS011;62004;42.566;23.164;2023-02-15T11:06:30;602.88;;;559.75;;
73697;SDS011;62004;42.566;23.164;2023-02-15T11:08:59;602.97;;;559.60;;
73697;SDS011;62004;42.566;23.164;2023-02-15T11:11:32;606.45;;;562.63;;
73697;SDS011;62004;42.566;23.164;2023-02-15T11:14:01;613.78;;;568.83;;
73697;SDS011;62004;42.566;23.164;2023-02-15T11:16:36;615.58;;;570.20;;
73697;SDS011;62004;42.566;23.164;2023-02-15T11:19:21;615.35;;;571.25;;
73697;SDS011;62004;42.566;23.164;2023-02-15T11:21:50;615.97;;;571.58;;
73697;SDS011;62004;42.566;23.164;2023-02-15T11:24:18;613.17;;;568.58;;
73697;SDS011;62004;42.566;23.164;2023-02-15T11:29:12;607.90;;;564.40;;
73697;SDS011;62004;42.566;23.164;2023-02-15T11:31:42;610.33;;;566.75;;
73697;SDS011;62004;42.566;23.164;2023-02-15T11:34:12;607.72;;;564.10;;
73697;SDS011;62004;42.566;23.164;2023-02-15T11:36:38;615.70;;;570.65;;
73697;SDS011;62004;42.566;23.164;2023-02-15T11:39:09;613.28;;;568.50;;
73697;SDS011;62004;42.566;23.164;2023-02-15T11:41:37;609.70;;;565.83;;
73697;SDS011;62004;42.566;23.164;2023-02-15T11:44:10;611.17;;;566.30;;
73697;SDS011;62004;42.566;23.164;2023-02-15T11:46:37;608.45;;;565.13;;
73697;SDS011;62004;42.566;23.164;2023-02-15T11:49:04;605.20;;;560.95;;
73697;SDS011;62004;42.566;23.164;2023-02-15T11:51:29;607.15;;;562.88;;
73697;SDS011;62004;42.566;23.164;2023-02-15T11:53:55;598.20;;;555.40;;
73697;SDS011;62004;42.566;23.164;2023-02-15T11:56:21;601.92;;;558.47;;
73697;SDS011;62004;42.566;23.164;2023-02-15T11:58:49;617.95;;;572.40;;
73697;SDS011;62004;42.566;23.164;2023-02-15T12:06:11;610.85;;;565.42;;
73697;SDS011;62004;42.566;23.164;2023-02-15T12:08:38;616.58;;;571.75;;
73697;SDS011;62004;42.566;23.164;2023-02-15T12:11:09;612.72;;;566.72;;
73697;SDS011;62004;42.566;23.164;2023-02-15T12:13:37;613.83;;;569.08;;
73697;SDS011;62004;42.566;23.164;2023-02-15T12:16:18;616.95;;;570.70;;
73697;SDS011;62004;42.566;23.164;2023-02-15T12:18:43;614.63;;;568.83;;
73697;SDS011;62004;42.566;23.164;2023-02-15T12:21:11;616.03;;;570.35;;
73697;SDS011;62004;42.566;23.164;2023-02-15T12:23:43;613.00;;;567.33;;
73697;SDS011;62004;42.566;23.164;2023-02-15T12:26:11;613.63;;;567.55;;
73697;SDS011;62004;42.566;23.164;2023-02-15T12:28:43;617.28;;;571.22;;
73697;SDS011;62004;42.566;23.164;2023-02-15T12:31:21;612.15;;;567.50;;
73697;SDS011;62004;42.566;23.164;2023-02-15T12:33:47;608.75;;;563.80;;
73697;SDS011;62004;42.566;23.164;2023-02-15T12:36:15;617.92;;;571.35;;
73697;SDS011;62004;42.566;23.164;2023-02-15T12:38:42;613.25;;;567.05;;
73697;SDS011;62004;42.566;23.164;2023-02-15T12:41:23;612.00;;;566.53;;
73697;SDS011;62004;42.566;23.164;2023-02-15T12:44:14;614.22;;;567.80;;
73697;SDS011;62004;42.566;23.164;2023-02-15T12:46:40;614.72;;;568.20;;
73697;SDS011;62004;42.566;23.164;2023-02-15T12:49:17;615.40;;;568.58;;
73697;SDS011;62004;42.566;23.164;2023-02-15T12:51:43;607.80;;;562.33;;
73697;SDS011;62004;42.566;23.164;2023-02-15T12:54:15;615.33;;;568.83;;
73697;SDS011;62004;42.566;23.164;2023-02-15T12:56:41;618.65;;;572.53;;
73697;SDS011;62004;42.566;23.164;2023-02-15T12:59:06;611.20;;;565.73;;
73697;SDS011;62004;42.566;23.164;2023-02-15T13:01:31;613.57;;;567.70;;
73697;SDS011;62004;42.566;23.164;2023-02-15T13:03:59;618.33;;;571.53;;
73697;SDS011;62004;42.566;23.164;2023-02-15T13:06:25;608.00;;;562.33;;
73697;SDS011;62004;42.566;23.164;2023-02-15T13:08:51;617.90;;;570.63;;
73697;SDS011;62004;42.566;23.164;2023-02-15T13:11:28;612.50;;;565.70;;
73697;SDS011;62004;42.566;23.164;2023-02-15T13:14:00;614.83;;;569.08;;
73697;SDS011;62004;42.566;23.164;2023-02-15T13:16:38;611.72;;;565.55;;
73697;SDS011;62004;42.566;23.164;2023-02-15T13:19:26;610.50;;;564.28;;
73697;SDS011;62004;42.566;23.164;2023-02-15T13:26:47;612.53;;;567.08;;
73697;SDS011;62004;42.566;23.164;2023-02-15T13:29:29;614.45;;;567.72;;
73697;SDS011;62004;42.566;23.164;2023-02-15T13:31:55;605.80;;;560.50;;
73697;SDS011;62004;42.566;23.164;2023-02-15T13:34:33;613.60;;;567.72;;
73697;SDS011;62004;42.566;23.164;2023-02-15T13:47:02;608.75;;;562.30;;
73697;SDS011;62004;42.566;23.164;2023-02-15T13:59:33;617.50;;;570.20;;
73697;SDS011;62004;42.566;23.164;2023-02-15T14:07:44;610.90;;;565.28;;
73697;SDS011;62004;42.566;23.164;2023-02-15T14:12:48;619.67;;;572.07;;
73697;SDS011;62004;42.566;23.164;2023-02-15T14:23:01;612.83;;;566.42;;
73697;SDS011;62004;42.566;23.164;2023-02-15T14:25:33;616.58;;;569.67;;
73697;SDS011;62004;42.566;23.164;2023-02-15T14:30:36;611.80;;;565.83;;
73697;SDS011;62004;42.566;23.164;2023-02-15T14:33:06;616.83;;;570.35;;
73697;SDS011;62004;42.566;23.164;2023-02-15T14:35:32;610.85;;;565.00;;
73697;SDS011;62004;42.566;23.164;2023-02-15T14:45:53;621.70;;;574.55;;
73697;SDS011;62004;42.566;23.164;2023-02-15T14:48:24;612.83;;;568.13;;
73697;SDS011;62004;42.566;23.164;2023-02-15T14:50:50;609.80;;;563.85;;
73697;SDS011;62004;42.566;23.164;2023-02-15T14:58:32;620.17;;;573.95;;
73697;SDS011;62004;42.566;23.164;2023-02-15T15:01:03;616.23;;;570.37;;
73697;SDS011;62004;42.566;23.164;2023-02-15T15:03:30;624.65;;;578.42;;
73697;SDS011;62004;42.566;23.164;2023-02-15T15:05:56;621.28;;;574.35;;
73697;SDS011;62004;42.566;23.164;2023-02-15T15:08:29;607.88;;;563.25;;
73697;SDS011;62004;42.566;23.164;2023-02-15T15:10:56;614.88;;;569.38;;
73697;SDS011;62004;42.566;23.164;2023-02-15T15:15:56;611.92;;;567.35;;
73697;SDS011;62004;42.566;23.164;2023-02-15T15:21:06;611.13;;;566.50;;
73697;SDS011;62004;42.566;23.164;2023-02-15T15:23:42;611.97;;;567.92;;
73697;SDS011;62004;42.566;23.164;2023-02-15T15:26:24;611.63;;;567.85;;
73697;SDS011;62004;42.566;23.164;2023-02-15T15:28:53;618.42;;;574.50;;
73697;SDS011;62004;42.566;23.164;2023-02-15T15:39:05;618.85;;;575.42;;
73697;SDS011;62004;42.566;23.164;2023-02-15T15:41:41;619.70;;;575.95;;
73697;SDS011;62004;42.566;23.164;2023-02-15T15:49:28;621.00;;;577.05;;
73697;SDS011;62004;42.566;23.164;2023-02-15T15:51:53;612.85;;;570.50;;
73697;SDS011;62004;42.566;23.164;2023-02-15T15:54:23;623.70;;;579.90;;
73697;SDS011;62004;42.566;23.164;2023-02-15T15:56:49;611.05;;;569.13;;
73697;SDS011;62004;42.566;23.164;2023-02-15T15:59:23;625.55;;;581.70;;
73697;SDS011;62004;42.566;23.164;2023-02-15T16:01:49;624.33;;;581.20;;
73697;SDS011;62004;42.566;23.164;2023-02-15T16:04:31;620.38;;;577.45;;
73697;SDS011;62004;42.566;23.164;2023-02-15T16:06:57;613.53;;;571.42;;
73697;SDS011;62004;42.566;23.164;2023-02-15T16:09:24;629.70;;;585.95;;
73697;SDS011;62004;42.566;23.164;2023-02-15T16:11:53;617.58;;;575.67;;
73697;SDS011;62004;42.566;23.164;2023-02-15T16:16:51;624.30;;;581.93;;
73697;SDS011;62004;42.566;23.164;2023-02-15T16:19:22;617.90;;;575.53;;
73697;SDS011;62004;42.566;23.164;2023-02-15T16:21:48;631.90;;;588.78;;
73697;SDS011;62004;42.566;23.164;2023-02-15T16:29:17;623.08;;;580.97;;
73697;SDS011;62004;42.566;23.164;2023-02-15T16:31:43;624.70;;;582.13;;
73697;SDS011;62004;42.566;23.164;2023-02-15T16:34:17;611.45;;;569.70;;
73697;SDS011;62004;42.566;23.164;2023-02-15T16:36:43;612.95;;;572.25;;
73697;SDS011;62004;42.566;23.164;2023-02-15T16:39:18;612.10;;;571.20;;
73697;SDS011;62004;42.566;23.164;2023-02-15T16:41:43;626.40;;;584.33;;
73697;SDS011;62004;42.566;23.164;2023-02-15T16:44:19;632.35;;;589.88;;
73697;SDS011;62004;42.566;23.164;2023-02-15T16:46:51;617.38;;;576.25;;
73697;SDS011;62004;42.566;23.164;2023-02-15T16:49:20;616.78;;;576.65;;
73697;SDS011;62004;42.566;23.164;2023-02-15T16:51:54;608.95;;;568.80;;
73697;SDS011;62004;42.566;23.164;2023-02-15T16:54:21;621.35;;;580.45;;
73697;SDS011;62004;42.566;23.164;2023-02-15T16:56:46;613.35;;;574.13;;
73697;SDS011;62004;42.566;23.164;2023-02-15T17:04:33;613.38;;;574.58;;
73697;SDS011;62004;42.566;23.164;2023-02-15T17:07:03;601.17;;;563.10;;
73697;SDS011;62004;42.566;23.164;2023-02-15T17:09:30;609.90;;;571.67;;